createdAt,value
2019-05-21T00:00:38.590Z,15.65
2019-05-21T00:01:38.555Z,15.67
2019-05-21T00:02:38.547Z,15.68
2019-05-21T00:03:38.532Z,15.59
2019-05-21T00:04:38.533Z,15.75
2019-05-21T00:05:38.535Z,15.71
2019-05-21T00:06:38.499Z,15.60
2019-05-21T00:07:38.490Z,15.62
2019-05-21T00:08:38.478Z,15.62
2019-05-21T00:09:38.470Z,15.62
2019-05-21T00:10:38.484Z,15.51
2019-05-21T00:11:38.448Z,15.53
2019-05-21T00:12:38.437Z,15.54
2019-05-21T00:13:38.427Z,15.53
2019-05-21T00:14:38.415Z,15.49
2019-05-21T00:15:38.429Z,15.57
2019-05-21T00:16:38.396Z,15.46
2019-05-21T00:17:38.384Z,15.46
2019-05-21T00:18:38.374Z,15.50
2019-05-21T00:19:38.389Z,15.50
2019-05-21T00:20:38.377Z,15.47
2019-05-21T00:21:38.343Z,15.47
2019-05-21T00:22:38.385Z,15.46
2019-05-21T00:23:38.335Z,15.44
2019-05-21T00:24:38.667Z,15.49
2019-05-21T00:25:38.323Z,15.46
2019-05-21T00:26:38.293Z,15.44
2019-05-21T00:27:38.324Z,15.51
2019-05-21T00:28:38.290Z,15.44
2019-05-21T00:29:38.270Z,15.50
2019-05-21T00:30:38.270Z,15.47
2019-05-21T00:31:38.237Z,15.59
2019-05-21T00:32:38.227Z,15.51
2019-05-21T00:33:38.216Z,15.54
2019-05-21T00:34:44.044Z,15.53
2019-05-21T00:35:39.227Z,15.53
2019-05-21T00:36:38.182Z,15.49
2019-05-21T00:37:38.171Z,15.46
2019-05-21T00:38:38.161Z,15.49
2019-05-21T00:39:38.149Z,15.47
2019-05-21T00:40:38.138Z,15.53
2019-05-21T00:41:38.164Z,15.47
2019-05-21T00:42:38.138Z,15.49
2019-05-21T00:43:38.108Z,15.53
2019-05-21T00:44:38.106Z,15.46
2019-05-21T00:45:38.085Z,15.50
2019-05-21T00:46:38.073Z,15.46
2019-05-21T00:47:38.092Z,15.50
2019-05-21T00:48:38.055Z,15.39
2019-05-21T00:49:38.042Z,15.44
2019-05-21T00:50:38.030Z,15.47
2019-05-21T00:51:38.030Z,15.43
2019-05-21T00:52:38.054Z,15.38
2019-05-21T00:53:38.041Z,15.41
2019-05-21T00:54:37.988Z,15.44
2019-05-21T00:55:37.997Z,15.50
2019-05-21T00:56:37.966Z,15.46
2019-05-21T00:57:37.955Z,15.51
2019-05-21T00:58:37.981Z,15.38
2019-05-21T00:59:37.935Z,15.50
2019-05-21T01:00:37.924Z,15.50
2019-05-21T01:01:37.912Z,15.39
2019-05-21T01:02:37.903Z,15.41
2019-05-21T01:03:37.889Z,15.51
2019-05-21T01:04:37.917Z,15.47
2019-05-21T01:05:37.886Z,15.51
2019-05-21T01:06:37.858Z,15.49
2019-05-21T01:07:37.845Z,15.41
2019-05-21T01:08:37.850Z,15.35
2019-05-21T01:09:37.830Z,15.34
2019-05-21T01:10:37.855Z,15.36
2019-05-21T01:11:37.801Z,15.38
2019-05-21T01:12:37.793Z,15.41
2019-05-21T01:13:37.782Z,15.36
2019-05-21T01:14:37.771Z,15.31
2019-05-21T01:15:37.759Z,15.38
2019-05-21T01:16:37.785Z,15.46
2019-05-21T01:17:37.742Z,15.41
2019-05-21T01:18:37.732Z,15.43
2019-05-21T01:19:37.758Z,15.43
2019-05-21T01:20:37.707Z,15.46
2019-05-21T01:21:37.715Z,15.43
2019-05-21T01:22:37.711Z,15.47
2019-05-21T01:23:37.671Z,15.50
2019-05-21T01:24:37.661Z,15.49
2019-05-21T01:25:37.653Z,15.49
2019-05-21T01:26:37.638Z,15.47
2019-05-21T01:27:37.665Z,15.50
2019-05-21T01:28:37.674Z,15.41
2019-05-21T01:29:37.605Z,15.36
2019-05-21T01:30:37.593Z,15.36
2019-05-21T01:31:37.583Z,15.47
2019-05-21T01:32:37.578Z,15.41
2019-05-21T01:33:37.599Z,15.47
2019-05-21T01:34:37.574Z,15.36
2019-05-21T01:35:37.540Z,15.35
2019-05-21T01:36:37.529Z,15.36
2019-05-21T01:37:37.529Z,15.34
2019-05-21T01:38:37.510Z,15.20
2019-05-21T01:39:37.530Z,15.17
2019-05-21T01:40:37.486Z,15.13
2019-05-21T01:41:37.493Z,15.23
2019-05-21T01:42:37.466Z,15.07
2019-05-21T01:43:37.452Z,15.10
2019-05-21T01:44:37.479Z,15.17
2019-05-21T01:45:37.431Z,15.20
2019-05-21T01:46:37.421Z,15.11
2019-05-21T01:47:37.409Z,15.11
2019-05-21T01:48:37.402Z,15.19
2019-05-21T01:49:37.387Z,15.21
2019-05-21T01:50:37.423Z,15.09
2019-05-21T01:51:37.382Z,15.19
2019-05-21T01:52:37.355Z,15.16
2019-05-21T01:53:37.358Z,15.14
2019-05-21T01:54:37.332Z,15.13
2019-05-21T01:55:37.323Z,15.14
2019-05-21T01:56:37.350Z,15.03
2019-05-21T01:57:37.299Z,15.07
2019-05-21T01:58:37.289Z,15.11
2019-05-21T01:59:37.278Z,15.13
2019-05-21T02:00:37.297Z,15.14
2019-05-21T02:01:37.256Z,15.01
2019-05-21T02:02:37.278Z,15.03
2019-05-21T02:03:37.234Z,15.07
2019-05-21T02:04:37.224Z,15.02
2019-05-21T02:05:37.213Z,14.92
2019-05-21T02:06:37.200Z,14.89
2019-05-21T02:07:37.230Z,14.91
2019-05-21T02:08:37.180Z,14.95
2019-05-21T02:09:37.168Z,14.99
2019-05-21T02:10:37.158Z,14.96
2019-05-21T02:11:37.147Z,14.91
2019-05-21T02:12:37.171Z,14.92
2019-05-21T02:13:37.161Z,15.02
2019-05-21T02:14:37.132Z,14.95
2019-05-21T02:15:37.109Z,14.98
2019-05-21T02:16:37.133Z,14.96
2019-05-21T02:17:37.081Z,14.96
2019-05-21T02:18:37.076Z,14.94
2019-05-21T02:19:37.084Z,14.92
2019-05-21T02:20:37.056Z,14.91
2019-05-21T02:21:37.035Z,14.89
2019-05-21T02:22:37.027Z,14.89
2019-05-21T02:23:37.015Z,14.88
2019-05-21T02:24:37.050Z,14.94
2019-05-21T02:25:37.016Z,14.88
2019-05-21T02:26:36.988Z,14.88
2019-05-21T02:27:36.971Z,14.91
2019-05-21T02:28:36.962Z,14.80
2019-05-21T02:29:36.949Z,14.89
2019-05-21T02:30:36.978Z,14.88
2019-05-21T02:31:36.929Z,14.84
2019-05-21T02:32:36.921Z,14.84
2019-05-21T02:33:36.908Z,14.86
2019-05-21T02:34:36.900Z,14.89
2019-05-21T02:35:52.833Z,14.88
2019-05-21T02:36:37.911Z,14.89
2019-05-21T02:37:36.875Z,14.89
2019-05-21T02:38:36.852Z,14.91
2019-05-21T02:39:36.843Z,14.83
2019-05-21T02:40:36.833Z,14.91
2019-05-21T02:41:36.823Z,14.80
2019-05-21T02:42:36.841Z,14.83
2019-05-21T02:43:36.799Z,14.81
2019-05-21T02:44:36.788Z,14.84
2019-05-21T02:45:36.779Z,14.81
2019-05-21T02:46:36.786Z,14.80
2019-05-21T02:47:36.811Z,14.73
2019-05-21T02:48:36.744Z,14.86
2019-05-21T02:49:36.733Z,14.72
2019-05-21T02:50:36.727Z,14.70
2019-05-21T02:51:36.712Z,14.73
2019-05-21T02:52:36.703Z,14.75
2019-05-21T02:53:36.727Z,14.65
2019-05-21T02:54:41.379Z,14.73
2019-05-21T02:55:37.667Z,14.73
2019-05-21T02:56:36.660Z,14.73
2019-05-21T02:57:36.646Z,14.72
2019-05-21T02:58:36.636Z,14.69
2019-05-21T02:59:36.648Z,14.77
2019-05-21T03:00:38.769Z,14.72
2019-05-21T03:01:36.603Z,14.77
2019-05-21T03:02:36.590Z,14.78
2019-05-21T03:03:36.583Z,14.80
2019-05-21T03:04:36.600Z,14.77
2019-05-21T03:05:36.569Z,14.75
2019-05-21T03:06:36.547Z,14.73
2019-05-21T03:07:36.541Z,14.80
2019-05-21T03:08:36.528Z,14.75
2019-05-21T03:09:36.556Z,14.72
2019-05-21T03:10:36.511Z,14.73
2019-05-21T03:11:36.493Z,14.57
2019-05-21T03:12:36.484Z,14.60
2019-05-21T03:13:36.474Z,14.54
2019-05-21T03:14:36.462Z,14.60
2019-05-21T03:15:36.488Z,14.57
2019-05-21T03:16:36.516Z,14.60
2019-05-21T03:17:36.431Z,14.62
2019-05-21T03:18:36.418Z,14.70
2019-05-21T03:19:36.408Z,14.62
2019-05-21T03:20:36.398Z,14.61
2019-05-21T03:21:36.425Z,14.73
2019-05-21T03:22:36.377Z,14.68
2019-05-21T03:23:36.388Z,14.69
2019-05-21T03:24:36.359Z,14.75
2019-05-21T03:25:36.344Z,14.61
2019-05-21T03:26:36.334Z,14.72
2019-05-21T03:27:36.361Z,14.57
2019-05-21T03:28:36.323Z,14.64
2019-05-21T03:29:36.304Z,14.61
2019-05-21T03:30:36.293Z,14.57
2019-05-21T03:31:36.281Z,14.51
2019-05-21T03:32:36.277Z,14.57
2019-05-21T03:33:36.347Z,14.54
2019-05-21T03:34:36.261Z,14.55
2019-05-21T03:35:36.237Z,14.61
2019-05-21T03:36:36.226Z,14.60
2019-05-21T03:37:36.216Z,14.61
2019-05-21T03:38:36.204Z,14.57
2019-05-21T03:39:36.224Z,14.61
2019-05-21T03:40:36.186Z,14.54
2019-05-21T03:41:36.171Z,14.60
2019-05-21T03:42:36.161Z,14.52
2019-05-21T03:43:36.153Z,14.51
2019-05-21T03:44:36.209Z,14.47
2019-05-21T03:45:36.148Z,14.46
2019-05-21T03:46:36.154Z,14.47
2019-05-21T03:47:36.109Z,14.51
2019-05-21T03:48:36.097Z,14.40
2019-05-21T03:49:36.097Z,14.46
2019-05-21T03:50:36.111Z,14.46
2019-05-21T03:51:36.065Z,14.46
2019-05-21T03:52:36.053Z,14.43
2019-05-21T03:53:36.042Z,14.50
2019-05-21T03:54:36.031Z,14.51
2019-05-21T03:55:36.021Z,14.43
2019-05-21T03:56:36.058Z,14.43
2019-05-21T03:57:36.006Z,14.52
2019-05-21T03:58:35.994Z,14.50
2019-05-21T03:59:35.976Z,14.57
2019-05-21T04:00:35.966Z,14.61
2019-05-21T04:01:36.003Z,14.61
2019-05-21T04:02:35.949Z,14.64
2019-05-21T04:03:35.935Z,14.65
2019-05-21T04:04:35.921Z,14.60
2019-05-21T04:05:35.913Z,14.64
2019-05-21T04:06:50.712Z,14.65
2019-05-21T04:07:36.930Z,14.55
2019-05-21T04:08:35.880Z,14.70
2019-05-21T04:09:35.895Z,14.72
2019-05-21T04:10:35.865Z,14.61
2019-05-21T04:11:35.847Z,14.68
2019-05-21T04:12:35.835Z,14.70
2019-05-21T04:13:35.860Z,14.72
2019-05-21T04:14:35.818Z,14.70
2019-05-21T04:15:35.804Z,14.73
2019-05-21T04:16:35.793Z,14.75
2019-05-21T04:17:35.792Z,14.77
2019-05-21T04:18:35.805Z,14.81
2019-05-21T04:19:35.792Z,14.94
2019-05-21T04:20:35.747Z,14.91
2019-05-21T04:21:35.748Z,14.89
2019-05-21T04:22:35.726Z,14.92
2019-05-21T04:23:35.716Z,14.98
2019-05-21T04:24:35.743Z,14.91
2019-05-21T04:25:35.694Z,14.92
2019-05-21T04:26:35.683Z,14.86
2019-05-21T04:27:35.671Z,15.02
2019-05-21T04:28:35.660Z,14.96
2019-05-21T04:29:35.652Z,14.91
2019-05-21T04:30:35.688Z,14.99
2019-05-21T04:31:35.629Z,14.96
2019-05-21T04:32:35.617Z,15.02
2019-05-21T04:33:35.605Z,14.91
2019-05-21T04:34:35.596Z,14.96
2019-05-21T04:35:35.585Z,14.94
2019-05-21T04:36:35.614Z,14.99
2019-05-21T04:37:35.562Z,15.07
2019-05-21T04:38:35.566Z,15.06
2019-05-21T04:39:35.541Z,15.09
2019-05-21T04:40:35.533Z,14.91
2019-05-21T04:41:35.518Z,15.01
2019-05-21T04:42:35.555Z,14.98
2019-05-21T04:43:35.502Z,15.03
2019-05-21T04:44:35.488Z,15.07
2019-05-21T04:45:35.502Z,15.06
2019-05-21T04:46:35.464Z,14.99
2019-05-21T04:47:35.454Z,15.06
2019-05-21T04:48:35.481Z,15.03
2019-05-21T04:49:35.435Z,15.06
2019-05-21T04:50:35.423Z,15.06
2019-05-21T04:51:35.418Z,15.02
2019-05-21T04:52:35.397Z,15.06
2019-05-21T04:53:35.390Z,15.07
2019-05-21T04:54:35.404Z,15.06
2019-05-21T04:55:35.375Z,15.07
2019-05-21T04:56:35.355Z,15.06
2019-05-21T04:57:37.392Z,15.13
2019-05-21T04:58:35.332Z,15.13
2019-05-21T04:59:35.358Z,15.16
2019-05-21T05:00:35.311Z,15.17
2019-05-21T05:01:35.301Z,15.14
2019-05-21T05:02:35.294Z,15.31
2019-05-21T05:03:35.278Z,15.32
2019-05-21T05:04:35.271Z,15.32
2019-05-21T05:05:35.317Z,15.35
2019-05-21T05:06:35.246Z,15.32
2019-05-21T05:07:35.466Z,15.39
2019-05-21T05:08:35.280Z,15.44
2019-05-21T05:09:35.213Z,15.43
2019-05-21T05:10:35.209Z,15.43
2019-05-21T05:11:35.229Z,15.50
2019-05-21T05:12:35.186Z,15.57
2019-05-21T05:13:35.172Z,15.53
2019-05-21T05:14:35.217Z,15.50
2019-05-21T05:15:35.147Z,15.57
2019-05-21T05:16:35.137Z,15.46
2019-05-21T05:17:35.167Z,15.64
2019-05-21T05:18:35.136Z,15.54
2019-05-21T05:19:35.121Z,15.53
2019-05-21T05:20:35.094Z,15.51
2019-05-21T05:21:35.091Z,15.62
2019-05-21T05:22:35.074Z,15.64
2019-05-21T05:23:35.099Z,15.62
2019-05-21T05:24:37.119Z,15.62
2019-05-21T05:25:35.053Z,15.75
2019-05-21T05:26:35.032Z,15.71
2019-05-21T05:27:35.021Z,15.82
2019-05-21T05:28:35.058Z,15.78
2019-05-21T05:29:35.050Z,15.89
2019-05-21T05:30:34.989Z,15.92
2019-05-21T05:31:35.000Z,15.83
2019-05-21T05:32:34.968Z,15.89
2019-05-21T05:33:34.958Z,15.97
2019-05-21T05:34:34.985Z,15.92
2019-05-21T05:35:34.936Z,15.96
2019-05-21T05:36:34.928Z,16.09
2019-05-21T05:37:43.216Z,16.04
2019-05-21T05:38:35.905Z,16.05
2019-05-21T05:39:34.893Z,16.04
2019-05-21T05:40:34.919Z,16.07
2019-05-21T05:41:34.875Z,16.15
2019-05-21T05:42:34.917Z,16.07
2019-05-21T05:43:34.851Z,16.23
2019-05-21T05:44:34.850Z,16.08
2019-05-21T05:45:34.844Z,16.15
2019-05-21T05:46:34.861Z,16.20
2019-05-21T05:47:34.806Z,16.14
2019-05-21T05:48:34.836Z,16.30
2019-05-21T05:49:34.785Z,16.34
2019-05-21T05:50:34.775Z,16.35
2019-05-21T05:51:34.767Z,16.35
2019-05-21T05:52:34.789Z,16.41
2019-05-21T05:53:34.743Z,16.45
2019-05-21T05:54:34.732Z,16.50
2019-05-21T05:55:34.720Z,16.58
2019-05-21T05:56:34.709Z,16.61
2019-05-21T05:57:34.738Z,16.67
2019-05-21T05:58:34.687Z,16.75
2019-05-21T05:59:34.686Z,16.78
2019-05-21T06:00:34.665Z,16.85
2019-05-21T06:01:34.655Z,16.83
2019-05-21T06:02:34.644Z,16.82
2019-05-21T06:03:34.667Z,16.94
2019-05-21T06:04:34.621Z,16.86
2019-05-21T06:05:34.612Z,16.96
2019-05-21T06:06:34.601Z,16.96
2019-05-21T06:07:34.592Z,16.83
2019-05-21T06:08:34.578Z,16.89
2019-05-21T06:09:34.618Z,16.93
2019-05-21T06:10:34.568Z,16.89
2019-05-21T06:11:34.549Z,17.03
2019-05-21T06:12:34.574Z,17.04
2019-05-21T06:13:34.551Z,17.06
2019-05-21T06:14:34.568Z,16.98
2019-05-21T06:15:34.558Z,16.97
2019-05-21T06:16:34.498Z,17.03
2019-05-21T06:17:34.479Z,17.06
2019-05-21T06:18:35.591Z,17.01
2019-05-21T06:19:34.552Z,17.01
2019-05-21T06:20:34.494Z,17.12
2019-05-21T06:21:34.440Z,17.03
2019-05-21T06:22:34.428Z,17.18
2019-05-21T06:23:34.432Z,17.23
2019-05-21T06:24:34.415Z,17.25
2019-05-21T06:25:34.401Z,17.25
2019-05-21T06:26:34.429Z,17.33
2019-05-21T06:27:34.373Z,17.30
2019-05-21T06:28:34.362Z,17.22
2019-05-21T06:29:38.359Z,17.26
2019-05-21T06:30:35.340Z,17.36
2019-05-21T06:31:34.333Z,17.38
2019-05-21T06:32:34.369Z,17.40
2019-05-21T06:33:34.312Z,17.41
2019-05-21T06:34:34.309Z,17.54
2019-05-21T06:35:34.288Z,17.59
2019-05-21T06:36:34.287Z,17.70
2019-05-21T06:37:34.301Z,17.63
2019-05-21T06:38:34.281Z,17.70
2019-05-21T06:39:34.248Z,17.75
2019-05-21T06:40:34.232Z,17.70
2019-05-21T06:41:34.227Z,17.79
2019-05-21T06:42:34.217Z,17.71
2019-05-21T06:43:34.237Z,17.72
2019-05-21T06:44:34.216Z,17.71
2019-05-21T06:45:34.183Z,17.72
2019-05-21T06:46:34.169Z,17.87
2019-05-21T06:47:34.156Z,17.87
2019-05-21T06:48:34.147Z,17.90
2019-05-21T06:49:34.162Z,17.84
2019-05-21T06:50:37.278Z,17.95
2019-05-21T06:51:34.114Z,17.92
2019-05-21T06:52:34.128Z,17.93
2019-05-21T06:53:34.098Z,17.95
2019-05-21T06:54:34.120Z,17.93
2019-05-21T06:55:34.080Z,18.02
2019-05-21T06:56:34.063Z,18.12
2019-05-21T06:57:34.049Z,18.05
2019-05-21T06:58:34.039Z,18.08
2019-05-21T06:59:34.037Z,18.12
2019-05-21T07:00:34.059Z,18.08
2019-05-21T07:01:34.009Z,18.18
2019-05-21T07:02:33.995Z,18.17
2019-05-21T07:03:33.989Z,18.23
2019-05-21T07:04:33.975Z,18.26
2019-05-21T07:05:33.966Z,18.42
2019-05-21T07:06:33.993Z,18.41
2019-05-21T07:07:33.946Z,18.51
2019-05-21T07:08:35.303Z,18.45
2019-05-21T07:09:33.920Z,18.51
2019-05-21T07:10:33.910Z,18.54
2019-05-21T07:11:33.902Z,18.57
2019-05-21T07:12:33.919Z,18.65
2019-05-21T07:13:33.878Z,18.72
2019-05-21T07:14:33.870Z,18.78
2019-05-21T07:15:33.867Z,18.80
2019-05-21T07:16:33.846Z,18.72
2019-05-21T07:17:33.873Z,18.81
2019-05-21T07:18:33.826Z,18.92
2019-05-21T07:19:33.816Z,18.81
2019-05-21T07:20:33.803Z,18.94
2019-05-21T07:21:33.792Z,18.94
2019-05-21T07:22:33.809Z,19.06
2019-05-21T07:23:33.814Z,19.07
2019-05-21T07:24:33.818Z,19.08
2019-05-21T07:25:33.751Z,19.08
2019-05-21T07:26:33.740Z,19.13
2019-05-21T07:27:33.729Z,19.21
2019-05-21T07:28:33.724Z,19.26
2019-05-21T07:29:33.737Z,19.22
2019-05-21T07:30:33.699Z,19.25
2019-05-21T07:31:33.683Z,19.32
2019-05-21T07:32:33.680Z,19.32
2019-05-21T07:33:33.663Z,19.31
2019-05-21T07:34:33.690Z,19.40
2019-05-21T07:35:33.638Z,19.25
2019-05-21T07:36:33.628Z,19.28
2019-05-21T07:37:33.617Z,19.32
2019-05-21T07:38:33.630Z,19.36
2019-05-21T07:39:33.601Z,19.37
2019-05-21T07:40:33.625Z,19.31
2019-05-21T07:41:33.575Z,19.25
2019-05-21T07:42:33.564Z,19.32
2019-05-21T07:43:33.557Z,19.37
2019-05-21T07:44:33.561Z,19.46
2019-05-21T07:45:33.532Z,19.56
2019-05-21T07:46:33.562Z,19.55
2019-05-21T07:47:33.512Z,19.48
2019-05-21T07:48:33.504Z,19.61
2019-05-21T07:49:33.493Z,19.66
2019-05-21T07:50:33.486Z,19.74
2019-05-21T07:51:33.470Z,19.71
2019-05-21T07:52:33.511Z,19.86
2019-05-21T07:53:33.461Z,19.83
2019-05-21T07:54:33.440Z,19.88
2019-05-21T07:55:33.439Z,19.88
2019-05-21T07:56:33.421Z,19.87
2019-05-21T07:57:33.413Z,19.99
2019-05-21T07:58:33.438Z,19.96
2019-05-21T07:59:33.385Z,20.03
2019-05-21T08:00:33.376Z,20.01
2019-05-21T08:01:33.418Z,20.05
2019-05-21T08:02:33.369Z,20.06
2019-05-21T08:03:33.343Z,20.17
2019-05-21T08:04:33.377Z,20.21
2019-05-21T08:05:33.322Z,20.21
2019-05-21T08:06:33.311Z,20.14
2019-05-21T08:07:33.300Z,20.21
2019-05-21T08:08:33.291Z,20.18
2019-05-21T08:09:33.316Z,20.23
2019-05-21T08:10:33.268Z,20.17
2019-05-21T08:11:33.254Z,20.28
2019-05-21T08:12:38.809Z,20.20
2019-05-21T08:13:34.234Z,20.31
2019-05-21T08:14:33.225Z,20.36
2019-05-21T08:15:33.258Z,20.38
2019-05-21T08:16:33.202Z,20.47
2019-05-21T08:17:33.190Z,20.39
2019-05-21T08:18:33.188Z,20.41
2019-05-21T08:19:33.171Z,20.42
2019-05-21T08:20:33.157Z,20.38
2019-05-21T08:21:33.192Z,20.48
2019-05-21T08:22:33.135Z,20.58
2019-05-21T08:23:33.129Z,20.66
2019-05-21T08:24:33.116Z,20.74
2019-05-21T08:25:33.176Z,20.70
2019-05-21T08:26:33.130Z,20.82
2019-05-21T08:27:33.083Z,20.80
2019-05-21T08:28:33.073Z,20.89
2019-05-21T08:29:33.078Z,20.91
2019-05-21T08:30:33.072Z,20.89
2019-05-21T08:31:33.042Z,20.87
2019-05-21T08:32:33.065Z,20.97
2019-05-21T08:33:33.016Z,20.89
2019-05-21T08:34:33.005Z,20.94
2019-05-21T08:35:32.995Z,20.92
2019-05-21T08:36:32.986Z,20.80
2019-05-21T08:37:32.987Z,20.79
2019-05-21T08:38:33.001Z,20.84
2019-05-21T08:39:32.956Z,20.85
2019-05-21T08:40:32.954Z,20.95
2019-05-21T08:41:32.943Z,20.97
2019-05-21T08:42:32.921Z,21.01
2019-05-21T08:43:32.910Z,20.98
2019-05-21T08:44:32.929Z,21.01
2019-05-21T08:45:32.917Z,21.07
2019-05-21T08:46:32.878Z,21.16
2019-05-21T08:47:32.867Z,21.29
2019-05-21T08:48:32.861Z,21.28
2019-05-21T08:49:32.886Z,21.38
2019-05-21T08:50:32.836Z,21.50
2019-05-21T08:51:32.826Z,21.50
2019-05-21T08:52:32.816Z,21.58
2019-05-21T08:53:32.805Z,21.62
2019-05-21T08:54:32.794Z,21.74
2019-05-21T08:55:32.821Z,21.75
2019-05-21T08:56:32.773Z,21.80
2019-05-21T08:57:32.762Z,21.79
2019-05-21T08:58:32.752Z,21.82
2019-05-21T08:59:32.746Z,21.80
2019-05-21T09:00:32.731Z,21.82
2019-05-21T09:01:32.747Z,21.84
2019-05-21T09:02:32.710Z,21.88
2019-05-21T09:03:32.698Z,21.84
2019-05-21T09:05:33.672Z,22.05
2019-05-21T09:06:32.702Z,22.00
2019-05-21T09:07:32.656Z,22.05
2019-05-21T09:08:32.645Z,22.02
2019-05-21T09:09:10.029Z,21.88
2019-05-21T09:09:48.613Z,21.99
2019-05-21T09:10:33.619Z,22.06
2019-05-21T09:11:32.614Z,21.96
2019-05-21T09:12:32.656Z,21.99
2019-05-21T09:13:32.595Z,22.03
2019-05-21T09:14:32.580Z,21.99
2019-05-21T09:15:32.567Z,21.92
2019-05-21T09:16:32.556Z,21.92
2019-05-21T09:17:32.546Z,22.07
2019-05-21T09:18:32.586Z,22.09
2019-05-21T09:19:36.102Z,22.14
2019-05-21T09:20:32.514Z,22.31
2019-05-21T09:21:32.506Z,22.31
2019-05-21T09:22:32.491Z,22.24
2019-05-21T09:23:32.480Z,22.37
2019-05-21T09:24:32.548Z,22.52
2019-05-21T09:25:32.460Z,22.37
2019-05-21T09:26:32.451Z,22.51
2019-05-21T09:27:32.444Z,22.49
2019-05-21T09:28:32.432Z,22.65
2019-05-21T09:29:32.459Z,22.72
2019-05-21T09:30:32.417Z,22.72
2019-05-21T09:31:32.396Z,22.80
2019-05-21T09:32:32.390Z,22.82
2019-05-21T09:33:32.396Z,22.90
2019-05-21T09:34:47.378Z,22.94
2019-05-21T09:35:33.405Z,22.92
2019-05-21T09:36:32.343Z,22.92
2019-05-21T09:37:32.338Z,23.00
2019-05-21T09:38:32.324Z,23.12
2019-05-21T09:39:32.312Z,23.15
2019-05-21T09:40:32.310Z,23.15
2019-05-21T09:41:32.317Z,23.17
2019-05-21T09:42:32.281Z,23.16
2019-05-21T09:43:32.269Z,23.22
2019-05-21T09:44:32.260Z,23.15
2019-05-21T09:45:32.246Z,23.23
2019-05-21T09:46:32.274Z,23.27
2019-05-21T09:47:32.231Z,23.33
2019-05-21T09:48:32.221Z,23.40
2019-05-21T09:49:32.204Z,23.39
2019-05-21T09:50:32.192Z,23.50
2019-05-21T09:51:32.186Z,23.57
2019-05-21T09:52:32.210Z,23.51
2019-05-21T09:53:32.163Z,23.31
2019-05-21T09:54:32.150Z,23.13
2019-05-21T09:55:33.753Z,23.02
2019-05-21T09:56:32.153Z,22.95
2019-05-21T09:57:32.120Z,22.76
2019-05-21T09:58:32.143Z,22.67
2019-05-21T09:59:32.095Z,22.83
2019-05-21T10:00:32.093Z,22.86
2019-05-21T10:01:32.076Z,22.86
2019-05-21T10:02:32.066Z,23.00
2019-05-21T10:03:32.056Z,23.13
2019-05-21T10:04:32.068Z,23.27
2019-05-21T10:05:32.033Z,23.31
2019-05-21T10:06:32.023Z,23.16
2019-05-21T10:07:39.906Z,23.33
2019-05-21T10:08:33.000Z,23.39
2019-05-21T10:09:32.027Z,23.55
2019-05-21T10:10:31.983Z,23.47
2019-05-21T10:11:31.969Z,23.51
2019-05-21T10:12:31.959Z,23.58
2019-05-21T10:13:31.949Z,23.70
2019-05-21T10:14:34.226Z,23.68
2019-05-21T10:15:31.934Z,23.69
2019-05-21T10:16:31.917Z,23.72
2019-05-21T10:17:31.906Z,23.80
2019-05-21T10:18:31.897Z,23.76
2019-05-21T10:19:31.904Z,23.80
2019-05-21T10:20:31.916Z,23.76
2019-05-21T10:21:31.869Z,23.72
2019-05-21T10:22:31.854Z,23.80
2019-05-21T10:23:31.922Z,23.91
2019-05-21T10:24:31.836Z,23.85
2019-05-21T10:25:31.825Z,23.94
2019-05-21T10:26:31.851Z,23.88
2019-05-21T10:27:31.806Z,24.00
2019-05-21T10:28:31.793Z,24.02
2019-05-21T10:29:31.787Z,24.00
2019-05-21T10:30:31.773Z,23.97
2019-05-21T10:31:31.761Z,23.90
2019-05-21T10:32:31.792Z,23.91
2019-05-21T10:33:31.758Z,24.05
2019-05-21T10:34:31.731Z,24.12
2019-05-21T10:35:31.720Z,24.13
2019-05-21T10:36:31.710Z,24.18
2019-05-21T10:37:31.738Z,24.24
2019-05-21T10:38:31.691Z,24.13
2019-05-21T10:39:31.682Z,24.08
2019-05-21T10:40:31.673Z,24.00
2019-05-21T10:41:31.660Z,24.12
2019-05-21T10:42:31.659Z,24.25
2019-05-21T10:43:31.672Z,24.25
2019-05-21T10:44:31.630Z,24.49
2019-05-21T10:45:31.621Z,24.62
2019-05-21T10:46:31.625Z,24.76
2019-05-21T10:47:31.595Z,24.81
2019-05-21T10:48:31.587Z,24.87
2019-05-21T10:49:31.597Z,24.83
2019-05-21T10:50:31.572Z,24.93
2019-05-21T10:51:31.566Z,24.93
2019-05-21T10:52:31.540Z,25.00
2019-05-21T10:53:31.534Z,25.03
2019-05-21T10:54:31.556Z,25.20
2019-05-21T10:55:31.527Z,25.17
2019-05-21T10:56:46.738Z,25.18
2019-05-21T10:57:32.499Z,25.21
2019-05-21T10:58:31.475Z,25.17
2019-05-21T10:59:31.465Z,25.08
2019-05-21T11:00:31.495Z,25.09
2019-05-21T11:01:31.452Z,25.09
2019-05-21T11:02:31.442Z,24.96
2019-05-21T11:03:31.434Z,24.96
2019-05-21T11:04:31.411Z,24.98
2019-05-21T11:05:31.407Z,24.93
2019-05-21T11:06:31.440Z,24.90
2019-05-21T11:07:31.383Z,24.90
2019-05-21T11:08:31.371Z,24.71
2019-05-21T11:09:31.360Z,24.53
2019-05-21T11:10:31.348Z,24.32
2019-05-21T11:11:31.338Z,24.43
2019-05-21T11:12:31.355Z,24.47
2019-05-21T11:13:31.318Z,24.57
2019-05-21T11:14:31.306Z,24.60
2019-05-21T11:15:31.321Z,24.58
2019-05-21T11:16:31.286Z,24.58
2019-05-21T11:17:31.311Z,24.24
2019-05-21T11:18:31.270Z,24.15
2019-05-21T11:19:31.256Z,24.05
2019-05-21T11:20:31.285Z,24.06
2019-05-21T11:21:31.252Z,24.09
2019-05-21T11:22:31.219Z,24.08
2019-05-21T11:23:31.241Z,24.20
2019-05-21T11:24:31.199Z,24.47
2019-05-21T11:25:31.237Z,24.49
2019-05-21T11:26:31.179Z,24.58
2019-05-21T11:27:31.166Z,24.73
2019-05-21T11:28:31.156Z,24.85
2019-05-21T11:29:31.155Z,24.87
2019-05-21T11:30:31.160Z,24.87
2019-05-21T11:31:31.148Z,24.96
2019-05-21T11:32:31.112Z,25.09
2019-05-21T11:33:31.105Z,25.06
2019-05-21T11:34:31.096Z,25.09
2019-05-21T11:35:31.105Z,25.13
2019-05-21T11:36:31.071Z,25.13
2019-05-21T11:37:31.060Z,25.14
2019-05-21T11:38:39.469Z,25.13
2019-05-21T11:39:32.042Z,25.20
2019-05-21T11:40:31.062Z,25.43
2019-05-21T11:41:31.017Z,25.85
2019-05-21T11:42:31.018Z,26.67
2019-05-21T11:43:30.998Z,27.10
2019-05-21T11:44:30.991Z,27.22
2019-05-21T11:45:32.977Z,27.82
2019-05-21T11:46:30.967Z,27.90
2019-05-21T11:47:30.955Z,27.81
2019-05-21T11:48:30.979Z,27.79
2019-05-21T11:49:30.943Z,27.66
2019-05-21T11:50:30.954Z,27.54
2019-05-21T11:51:30.915Z,27.57
2019-05-21T11:52:30.905Z,27.51
2019-05-21T11:53:32.031Z,27.10
2019-05-21T11:54:30.885Z,26.65
2019-05-21T11:55:30.899Z,26.45
2019-05-21T11:56:30.863Z,26.25
2019-05-21T11:57:30.856Z,26.20
2019-05-21T11:58:30.854Z,26.05
2019-05-21T11:59:30.833Z,26.25
2019-05-21T12:00:30.892Z,26.29
2019-05-21T12:01:30.818Z,26.40
2019-05-21T12:02:30.810Z,26.60
2019-05-21T12:03:30.796Z,26.87
2019-05-21T12:04:30.782Z,26.77
2019-05-21T12:05:30.795Z,26.75
2019-05-21T12:06:30.793Z,26.65
2019-05-21T12:07:30.749Z,26.60
2019-05-21T12:08:30.739Z,26.89
2019-05-21T12:09:30.728Z,27.07
2019-05-21T12:10:30.757Z,27.49
2019-05-21T12:11:30.707Z,27.81
2019-05-21T12:12:30.697Z,28.22
2019-05-21T12:13:30.688Z,28.52
2019-05-21T12:14:30.675Z,28.67
2019-05-21T12:15:30.714Z,28.61
2019-05-21T12:16:30.656Z,28.51
2019-05-21T12:17:30.679Z,28.64
2019-05-21T12:18:30.648Z,28.64
2019-05-21T12:19:30.624Z,28.44
2019-05-21T12:20:36.719Z,28.41
2019-05-21T12:21:31.610Z,28.31
2019-05-21T12:22:30.594Z,28.25
2019-05-21T12:23:30.587Z,28.17
2019-05-21T12:24:30.576Z,28.14
2019-05-21T12:25:30.589Z,28.00
2019-05-21T12:26:30.554Z,27.66
2019-05-21T12:27:30.550Z,27.79
2019-05-21T12:28:30.546Z,27.90
2019-05-21T12:29:34.071Z,27.88
2019-05-21T12:30:30.544Z,27.75
2019-05-21T12:31:30.503Z,27.69
2019-05-21T12:32:30.496Z,27.94
2019-05-21T12:33:30.517Z,28.66
2019-05-21T12:34:30.473Z,28.71
2019-05-21T12:35:30.488Z,28.95
2019-05-21T12:36:30.452Z,29.36
2019-05-21T12:37:30.446Z,29.73
2019-05-21T12:38:30.494Z,29.90
2019-05-21T12:39:30.423Z,30.00
2019-05-21T12:40:30.437Z,30.13
2019-05-21T12:41:30.400Z,30.55
2019-05-21T12:42:30.394Z,29.95
2019-05-21T12:43:30.381Z,29.74
2019-05-21T12:44:30.382Z,29.41
2019-05-21T12:45:30.392Z,29.12
2019-05-21T12:46:30.369Z,28.85
2019-05-21T12:47:30.338Z,28.49
2019-05-21T12:48:30.331Z,28.33
2019-05-21T12:49:30.324Z,28.21
2019-05-21T12:50:30.333Z,28.15
2019-05-21T12:51:30.301Z,27.82
2019-05-21T12:52:33.653Z,27.81